Time;durP1;ratioP1;P1;durP2;ratioP2;P2;SDS_P1;SDS_P2;PMS_P1;PMS_P2;Temp;Humidity;BMP_temperature;BMP_pressure;BME280_temperature;BME280_humidity;BME280_pressure;Samples;Min_cycle;Max_cycle;Signal;HPM_P1;HPM_P2
2023/09/11 00:02:21;;;;;;;4.07;3.27;;;;;;;21.46;86.36;101299.75;5034882;28;20037;-88
2023/09/11 00:04:47;;;;;;;4.83;3.40;;;;;;;21.34;86.27;101288.09;5025447;28;20049;-88
2023/09/11 00:07:13;;;;;;;3.57;3.20;;;;;;;21.35;86.17;101292.44;5014354;28;20432;-89
2023/09/11 00:09:38;;;;;;;;;;;;;;;21.29;86.36;101290.97;5015814;28;20046;-88
2023/09/11 00:12:04;;;;;;;;;;;;;;;21.24;86.40;101290.34;5014140;28;19948;-88
2023/09/11 00:14:29;;;;;;;6.10;4.10;;;;;;;21.16;86.34;101283.81;5014479;28;20384;-88
2023/09/11 00:16:54;;;;;;;3.90;3.37;;;;;;;21.13;86.89;101277.75;5014972;28;20331;-88
2023/09/11 00:19:20;;;;;;;4.30;3.50;;;;;;;21.11;86.39;101282.25;5013795;28;20064;-88
2023/09/11 00:21:45;;;;;;;4.27;3.57;;;;;;;21.06;86.87;101279.00;5025320;28;20100;-87
2023/09/11 00:24:10;;;;;;;4.03;3.30;;;;;;;21.04;86.66;101283.53;5033400;28;20025;-87
2023/09/11 00:26:36;;;;;;;4.00;3.17;;;;;;;21.00;87.15;101279.31;5034359;28;20021;-88
2023/09/11 00:29:01;;;;;;;4.20;3.60;;;;;;;20.94;86.88;101282.28;5033904;28;20018;-87
2023/09/11 00:31:27;;;;;;;4.23;3.63;;;;;;;20.91;87.22;101282.44;5033090;28;20067;-88
2023/09/11 00:33:52;;;;;;;4.53;3.67;;;;;;;20.81;87.26;101272.38;5034671;28;20534;-87
2023/09/11 00:36:17;;;;;;;4.33;3.50;;;;;;;20.81;87.74;101280.28;5033444;28;20120;-88
2023/09/11 00:38:47;;;;;;;4.00;3.40;;;;;;;20.75;87.69;101282.38;5033083;28;20057;-88
2023/09/11 00:41:13;;;;;;;4.88;3.75;;;;;;;20.72;88.87;101280.72;5033882;28;20045;-87
2023/09/11 00:43:44;;;;;;;4.03;3.10;;;;;;;20.68;88.65;101282.66;5033922;28;20112;-87
2023/09/11 00:46:10;;;;;;;4.47;3.35;;;;;;;20.62;88.26;101276.84;5033231;28;20068;-88
2023/09/11 00:48:35;;;;;;;4.78;3.65;;;;;;;20.52;88.63;101274.66;5033897;28;20473;-88
2023/09/11 00:51:01;;;;;;;4.10;3.37;;;;;;;20.56;88.50;101275.38;5034140;28;20033;-88
2023/09/11 00:53:27;;;;;;;3.85;3.13;;;;;;;20.43;88.85;101261.97;5032643;28;20025;-88
2023/09/11 00:55:53;;;;;;;4.03;3.28;;;;;;;20.46;88.71;101276.75;5034025;28;20030;-88
2023/09/11 00:58:30;;;;;;;3.67;3.20;;;;;;;20.39;88.73;101265.66;5032998;28;20025;-87
2023/09/11 01:00:59;;;;;;;3.80;3.40;;;;;;;20.41;88.64;101270.88;5032263;28;20029;-88
2023/09/11 01:03:24;;;;;;;4.32;3.53;;;;;;;20.36;89.10;101268.47;5033289;28;20432;-88
2023/09/11 01:05:51;;;;;;;4.87;3.30;;;;;;;20.34;89.40;101257.16;5033367;28;20021;-87
2023/09/11 01:08:16;;;;;;;4.40;3.42;;;;;;;20.35;89.04;101267.59;5032309;28;20355;-87
2023/09/11 01:10:57;;;;;;;4.17;3.43;;;;;;;20.30;89.63;101263.50;5033520;28;20032;-88
2023/09/11 01:13:28;;;;;;;3.97;3.40;;;;;;;20.19;89.67;101256.97;5032454;28;20029;-87
2023/09/11 01:16:14;;;;;;;4.68;3.70;;;;;;;20.18;89.48;101255.25;5033719;28;20061;-87
2023/09/11 01:19:06;;;;;;;4.13;3.40;;;;;;;20.27;89.66;101271.53;5032390;28;20057;-87
2023/09/11 01:21:50;;;;;;;4.35;3.40;;;;;;;20.23;89.71;101272.66;5032465;28;20052;-87
2023/09/11 01:24:32;;;;;;;4.38;3.30;;;;;;;20.19;90.16;101271.94;5033238;28;20092;-88
2023/09/11 01:27:30;;;;;;;3.45;3.15;;;;;;;20.14;90.19;101271.31;5033163;28;20087;-87
2023/09/11 01:29:57;;;;;;;4.45;3.50;;;;;;;20.13;90.01;101266.97;5002016;28;20037;-88
2023/09/11 01:32:25;;;;;;;3.33;3.00;;;;;;;20.06;90.47;101263.78;5033252;28;20034;-87
2023/09/11 01:34:51;;;;;;;3.10;2.80;;;;;;;20.03;90.52;101269.22;5032570;28;20100;-88
2023/09/11 01:37:16;;;;;;;4.00;3.20;;;;;;;20.02;90.51;101260.44;5033494;28;20438;-88
2023/09/11 01:39:41;;;;;;;4.13;3.10;;;;;;;19.99;90.85;101268.47;5032688;28;20046;-87
2023/09/11 01:42:11;;;;;;;3.30;3.00;;;;;;;19.96;91.26;101265.16;5031971;28;20037;-88
2023/09/11 01:44:44;;;;;;;3.40;2.80;;;;;;;19.94;91.10;101261.72;5032539;28;20068;-87
2023/09/11 01:47:14;;;;;;;3.20;2.90;;;;;;;19.91;91.10;101260.09;5032977;28;20025;-88
2023/09/11 01:49:42;;;;;;;3.75;3.13;;;;;;;19.87;91.13;101250.66;5032728;28;20026;-88
2023/09/11 01:52:13;;;;;;;3.50;3.20;;;;;;;19.88;90.84;101258.47;5032080;28;20374;-87
2023/09/11 01:54:39;;;;;;;3.75;3.20;;;;;;;19.86;90.88;101260.31;5032795;28;20055;-87
2023/09/11 01:57:05;;;;;;;4.07;3.50;;;;;;;19.86;91.10;101252.41;5031889;28;20494;-87
2023/09/11 01:59:31;;;;;;;3.92;3.35;;;;;;;19.85;90.85;101253.31;5032642;28;20265;-87
2023/09/11 02:01:56;;;;;;;4.90;3.80;;;;;;;19.82;91.37;101248.19;5033035;28;20044;-88
2023/09/11 02:04:22;;;;;;;4.07;3.50;;;;;;;19.79;90.99;101248.34;5032057;28;20502;-88
2023/09/11 02:06:47;;;;;;;4.03;3.43;;;;;;;19.77;91.35;101247.56;5032483;28;20028;-87
2023/09/11 02:09:13;;;;;;;4.37;3.47;;;;;;;19.70;91.47;101240.91;5032407;28;20405;-87
2023/09/11 02:11:38;;;;;;;4.73;3.50;;;;;;;19.68;91.18;101242.75;5032064;28;20084;-87
2023/09/11 02:14:03;;;;;;;5.23;3.50;;;;;;;19.74;91.74;101251.22;5032628;28;20064;-87
2023/09/11 02:16:29;;;;;;;3.80;3.30;;;;;;;19.71;91.29;101242.56;5032387;28;20021;-87
2023/09/11 02:18:54;;;;;;;4.67;3.57;;;;;;;19.66;91.70;101242.78;5031997;28;20101;-87
2023/09/11 02:21:20;;;;;;;5.10;3.77;;;;;;;19.64;91.46;101239.41;5032061;28;20025;-87
2023/09/11 02:23:46;;;;;;;3.67;3.20;;;;;;;19.64;92.05;101236.78;5032123;28;20536;-87
2023/09/11 02:26:11;;;;;;;3.97;3.40;;;;;;;19.60;91.86;101237.84;5032296;28;20030;-87
2023/09/11 02:28:36;;;;;;;4.37;3.47;;;;;;;19.57;91.84;101228.31;5032678;28;20048;-87
2023/09/11 02:31:02;;;;;;;3.77;3.37;;;;;;;19.56;92.17;101234.50;5035726;28;20169;-88
2023/09/11 02:33:27;;;;;;;5.03;3.60;;;;;;;19.52;91.94;101230.28;5036871;28;20033;-87
2023/09/11 02:35:57;;;;;;;4.00;3.30;;;;;;;19.51;92.01;101227.75;5092538;22;20032;-87
2023/09/11 02:38:23;;;;;;;4.38;3.50;;;;;;;19.43;92.02;101225.47;5014420;28;20049;-88
2023/09/11 02:40:48;;;;;;;3.90;3.37;;;;;;;19.43;92.13;101223.66;5057374;22;20060;-87
2023/09/11 02:43:13;;;;;;;4.83;3.40;;;;;;;19.39;92.53;101221.25;5055728;28;20299;-87
2023/09/11 02:45:43;;;;;;;3.33;3.00;;;;;;;19.39;92.33;101224.75;5055868;28;20067;-87
2023/09/11 02:48:08;;;;;;;3.83;3.30;;;;;;;19.33;92.39;101218.91;5056102;28;20021;-87
2023/09/11 02:50:33;;;;;;;4.17;3.30;;;;;;;19.32;92.37;101223.31;5056410;28;20078;-87
2023/09/11 02:52:59;;;;;;;4.40;3.40;;;;;;;19.34;92.51;101229.38;5055354;28;20063;-87
2023/09/11 02:55:24;;;;;;;5.33;3.40;;;;;;;19.28;93.07;101222.59;5055652;28;20041;-88
2023/09/11 02:57:49;;;;;;;3.77;3.17;;;;;;;19.28;92.30;101229.66;5054405;28;20053;-88
2023/09/11 03:00:15;;;;;;;4.47;3.37;;;;;;;19.19;92.98;101220.41;5055251;28;20525;-87
2023/09/11 03:02:40;;;;;;;4.80;3.23;;;;;;;19.22;92.76;101227.28;5055893;28;20035;-87
2023/09/11 03:05:06;;;;;;;3.57;3.10;;;;;;;19.12;92.89;101211.09;5055902;28;20021;-87
2023/09/11 03:07:31;;;;;;;5.40;3.60;;;;;;;19.18;92.72;101223.13;5055517;28;20079;-88
2023/09/11 03:09:56;;;;;;;4.23;3.47;;;;;;;19.08;92.68;101204.25;5055805;28;20087;-87
2023/09/11 03:12:21;;;;;;;4.63;3.53;;;;;;;19.12;93.36;101216.34;5055237;28;20569;-87
2023/09/11 03:14:50;;;;;;;3.90;3.37;;;;;;;19.07;93.35;101211.31;5055534;28;20111;-87
2023/09/11 03:17:16;;;;;;;4.40;3.50;;;;;;;19.07;93.07;101205.19;5055236;28;20044;-87
2023/09/11 03:19:41;;;;;;;5.00;3.53;;;;;;;18.97;93.20;101188.97;5047419;28;20056;-87
2023/09/11 03:22:07;;;;;;;4.70;3.70;;;;;;;19.05;93.33;101204.38;5044128;28;20084;-87
2023/09/11 03:24:50;;;;;;;3.80;3.40;;;;;;;18.98;93.31;101195.91;5035400;28;20056;-87
2023/09/11 03:27:15;;;;;;;4.32;3.50;;;;;;;18.93;93.54;101193.50;5034617;28;20385;-87
2023/09/11 03:29:40;;;;;;;4.70;3.60;;;;;;;18.96;93.57;101195.16;5034895;28;20025;-88
2023/09/11 03:32:06;;;;;;;5.40;3.70;;;;;;;18.93;93.65;101192.63;5035047;28;20496;-87
2023/09/11 03:34:47;;;;;;;5.75;3.50;;;;;;;18.90;93.84;101190.13;5034808;28;20458;-87
2023/09/11 03:37:12;;;;;;;4.70;3.60;;;;;;;18.83;93.88;101190.41;5035022;28;20025;-87
2023/09/11 03:39:37;;;;;;;4.13;3.40;;;;;;;18.78;93.89;101179.22;5034731;28;20060;-87
2023/09/11 03:42:03;;;;;;;4.17;3.40;;;;;;;18.82;94.25;101188.69;5033158;28;20045;-87
2023/09/11 03:44:28;;;;;;;3.60;3.20;;;;;;;18.82;94.14;101193.97;5035493;28;20032;-87
2023/09/11 03:46:54;;;;;;;4.03;3.30;;;;;;;18.82;94.07;101193.97;5034942;28;20037;-87
2023/09/11 03:49:19;;;;;;;3.50;3.20;;;;;;;18.79;94.09;101186.19;5041778;28;20055;-87
2023/09/11 03:51:44;;;;;;;4.17;3.20;;;;;;;18.78;94.05;101181.00;5035022;28;20022;-87
2023/09/11 03:54:10;;;;;;;4.23;3.20;;;;;;;18.75;94.10;101181.16;5034732;28;20389;-87
2023/09/11 03:56:38;;;;;;;4.90;3.30;;;;;;;18.73;94.13;101175.09;5034482;28;20067;-87
2023/09/11 03:59:04;;;;;;;4.00;3.42;;;;;;;18.72;94.21;101173.38;5034965;28;20033;-87
2023/09/11 04:01:29;;;;;;;5.10;3.50;;;;;;;18.71;94.18;101171.69;5035078;28;20037;-87
2023/09/11 04:03:54;;;;;;;3.70;3.27;;;;;;;18.68;94.44;101167.41;5034015;28;20029;-87
2023/09/11 04:06:20;;;;;;;4.40;3.23;;;;;;;18.65;94.41;101164.91;5034239;28;20032;-86
2023/09/11 04:08:45;;;;;;;5.17;3.60;;;;;;;18.64;94.60;101165.84;5034417;28;20034;-85
2023/09/11 04:11:10;;;;;;;4.23;3.17;;;;;;;18.57;94.73;101156.53;5033899;28;20020;-86
2023/09/11 04:13:36;;;;;;;4.23;3.33;;;;;;;18.54;94.53;101154.88;5048468;28;20462;-90
2023/09/11 04:16:01;;;;;;;3.27;2.97;;;;;;;18.52;94.77;101154.94;5034856;28;20304;-91
2023/09/11 04:18:26;;;;;;;4.10;3.33;;;;;;;18.48;94.95;101153.38;5052960;28;20104;-90
2023/09/11 04:21:00;;;;;;;3.80;3.30;;;;;;;18.46;95.29;101157.00;5054964;28;20028;-90
2023/09/11 04:23:25;;;;;;;4.47;3.30;;;;;;;18.43;95.78;101154.50;5055116;28;20518;-90
2023/09/11 04:25:54;;;;;;;3.50;3.10;;;;;;;18.41;95.87;101153.72;5054898;28;20025;-90
2023/09/11 04:28:19;;;;;;;3.55;3.10;;;;;;;18.30;95.70;101144.53;5055073;28;20033;-90
2023/09/11 04:30:44;;;;;;;4.17;3.20;;;;;;;18.36;95.70;101143.41;5054626;28;20466;-90
2023/09/11 04:33:09;;;;;;;5.30;3.63;;;;;;;18.32;96.06;101139.19;5054093;28;20025;-89
2023/09/11 04:35:35;;;;;;;3.97;3.20;;;;;;;18.32;97.62;101142.69;5054472;28;20500;-90
2023/09/11 04:38:00;;;;;;;4.33;3.50;;;;;;;18.29;96.43;101136.72;5054667;28;20482;-90
2023/09/11 04:40:25;;;;;;;3.90;3.10;;;;;;;18.27;96.26;101144.66;5053981;28;20079;-89
2023/09/11 04:42:55;;;;;;;3.33;3.00;;;;;;;18.27;96.51;101144.66;5053629;28;20040;-86
2023/09/11 04:45:23;;;;;;;3.17;2.80;;;;;;;18.19;96.28;101131.84;5048955;28;20033;-86
2023/09/11 04:47:48;;;;;;;4.18;2.92;;;;;;;18.29;96.19;101148.06;5053265;28;20033;-86
2023/09/11 04:50:13;;;;;;;5.00;3.07;;;;;;;18.30;96.23;101149.78;5052936;28;20021;-86
2023/09/11 04:52:42;;;;;;;3.70;3.10;;;;;;;18.30;95.89;101152.41;5052941;28;20021;-86
2023/09/11 04:55:08;;;;;;;3.17;2.85;;;;;;;18.32;95.96;101153.19;5052895;28;20033;-86
2023/09/11 04:57:34;;;;;;;3.85;3.15;;;;;;;18.32;96.11;101153.19;5053433;28;20108;-86
2023/09/11 04:59:59;;;;;;;3.40;3.07;;;;;;;18.32;96.28;101155.81;5052462;28;20195;-86
2023/09/11 05:02:25;;;;;;;4.13;3.00;;;;;;;18.32;96.50;101153.19;5053049;28;20021;-86
2023/09/11 05:04:50;;;;;;;3.23;2.90;;;;;;;18.32;95.93;101153.19;5053827;28;20036;-86
2023/09/11 05:07:15;;;;;;;3.30;3.00;;;;;;;18.30;95.87;101154.16;5052705;28;20052;-86
2023/09/11 05:09:41;;;;;;;3.23;2.93;;;;;;;18.32;96.93;101160.22;5053160;28;20032;-86
2023/09/11 05:12:06;;;;;;;3.50;3.07;;;;;;;18.31;96.33;101154.13;5053285;28;20372;-86
2023/09/11 05:14:32;;;;;;;3.80;3.20;;;;;;;18.30;96.56;101160.28;5051283;28;20116;-86
2023/09/11 05:16:57;;;;;;;3.40;2.90;;;;;;;18.31;95.99;101167.25;5042161;28;20033;-86
2023/09/11 05:19:22;;;;;;;3.40;2.80;;;;;;;18.30;96.43;101160.28;5052531;28;20033;-86
2023/09/11 05:21:48;;;;;;;2.80;2.57;;;;;;;18.31;96.05;101166.38;5052443;28;20040;-86
2023/09/11 05:24:13;;;;;;;3.97;3.17;;;;;;;18.26;97.84;101156.06;5053057;28;20031;-86
2023/09/11 05:26:38;;;;;;;3.97;3.10;;;;;;;18.20;96.95;101151.09;5052632;28;20025;-87
2023/09/11 05:29:04;;;;;;;3.47;2.97;;;;;;;18.25;97.06;101159.63;5053083;28;20033;-86
2023/09/11 05:31:29;;;;;;;3.37;2.90;;;;;;;18.21;96.99;101165.94;5053045;28;20024;-87
2023/09/11 05:33:54;;;;;;;2.80;2.60;;;;;;;18.24;97.30;101167.56;5052305;28;20246;-87
2023/09/11 05:36:20;;;;;;;3.07;2.60;;;;;;;18.24;96.76;101172.81;5053007;28;20051;-87
2023/09/11 05:38:47;;;;;;;3.10;2.70;;;;;;;18.24;98.16;101171.03;5053093;28;20430;-87
2023/09/11 05:41:13;;;;;;;3.95;3.08;;;;;;;18.23;98.42;101169.34;5052028;28;20124;-87
2023/09/11 05:43:40;;;;;;;4.10;2.63;;;;;;;18.27;97.78;101175.31;5042306;28;20035;-87
2023/09/11 05:46:06;;;;;;;2.80;2.55;;;;;;;18.28;97.29;101177.88;5032682;28;20029;-87
2023/09/11 05:48:31;;;;;;;2.40;2.20;;;;;;;18.28;97.69;101170.00;5032407;28;20028;-86
2023/09/11 05:50:57;;;;;;;2.63;2.43;;;;;;;18.34;97.44;101177.63;5032846;28;20508;-87
2023/09/11 05:53:22;;;;;;;2.40;2.20;;;;;;;18.38;97.58;101194.13;5032618;28;20032;-87
2023/09/11 05:55:47;;;;;;;2.37;2.17;;;;;;;18.36;97.20;101181.03;5032323;28;20083;-87
2023/09/11 05:58:13;;;;;;;3.20;2.70;;;;;;;18.41;98.40;101178.19;5032688;28;20041;-88
2023/09/11 06:00:38;;;;;;;3.07;2.60;;;;;;;18.46;98.02;101184.13;5037353;28;20021;-88
2023/09/11 06:03:07;;;;;;;3.00;2.60;;;;;;;18.49;98.36;101185.75;5051170;28;20025;-88
2023/09/11 06:05:39;;;;;;;2.72;2.50;;;;;;;18.51;97.83;101183.94;5051719;28;20363;-88
2023/09/11 06:08:05;;;;;;;2.33;2.13;;;;;;;18.56;98.01;101192.47;5052523;28;20410;-87
2023/09/11 06:10:30;;;;;;;2.53;2.33;;;;;;;18.59;97.45;101194.13;5049681;28;20082;-88
2023/09/11 06:12:56;;;;;;;2.63;2.30;;;;;;;18.63;97.76;101186.03;5032767;28;20299;-89
2023/09/11 06:15:21;;;;;;;3.27;2.47;;;;;;;18.71;97.88;101197.97;5032071;28;20032;-85
2023/09/11 06:17:46;;;;;;;2.50;2.30;;;;;;;18.73;98.14;101194.38;5031607;28;20454;-86
2023/09/11 06:20:15;;;;;;;2.20;2.00;;;;;;;18.78;98.28;101191.53;5032431;28;20033;-88
2023/09/11 06:22:47;;;;;;;4.25;3.10;;;;;;;18.74;99.00;101182.94;5042487;28;20174;-87
2023/09/11 06:25:12;;;;;;;6.72;4.13;;;;;;;18.79;99.77;101182.72;5052078;28;20104;-84
2023/09/11 06:27:37;;;;;;;5.10;3.50;;;;;;;18.95;98.89;101202.19;5052619;28;20505;-89
2023/09/11 06:30:15;;;;;;;5.97;3.20;;;;;;;18.97;99.21;101196.88;5051907;28;20453;-87
2023/09/11 06:32:41;;;;;;;5.40;3.63;;;;;;;19.05;98.87;101196.50;5052482;28;20534;-89
2023/09/11 06:35:07;;;;;;;4.80;3.40;;;;;;;19.06;99.09;101190.31;5053135;28;20032;-88
2023/09/11 06:37:32;;;;;;;4.83;3.80;;;;;;;19.18;98.85;101192.38;5052030;28;20374;-89
2023/09/11 06:40:19;;;;;;;5.53;4.03;;;;;;;19.26;98.71;101198.13;5045367;28;20498;-89
2023/09/11 06:42:43;;;;;;;4.88;3.63;;;;;;;19.34;98.41;101205.69;5032764;28;20037;-81
2023/09/11 06:45:10;;;;;;;4.00;3.33;;;;;;;19.39;98.14;101197.56;5031352;28;20079;-87
2023/09/11 06:47:35;;;;;;;5.85;3.55;;;;;;;19.54;98.48;101207.38;5032390;28;20025;-87
2023/09/11 06:50:00;;;;;;;3.50;2.90;;;;;;;19.66;97.83;101205.94;5032410;28;20025;-88
2023/09/11 06:52:26;;;;;;;4.67;3.40;;;;;;;20.16;99.42;101208.84;5030795;28;20116;-89
2023/09/11 06:54:51;;;;;;;3.67;3.17;;;;;;;21.53;98.18;101202.59;5032127;28;20032;-88
2023/09/11 06:57:16;;;;;;;3.03;2.70;;;;;;;22.70;94.24;101199.44;5031924;28;20446;-88
2023/09/11 06:59:42;;;;;;;3.10;2.80;;;;;;;23.37;91.29;101214.72;5031122;28;20025;-89
2023/09/11 07:02:08;;;;;;;3.00;2.50;;;;;;;24.45;88.92;101209.47;5032317;28;20079;-89
2023/09/11 07:04:42;;;;;;;2.38;2.17;;;;;;;25.71;86.15;101206.84;5032409;28;20032;-89
2023/09/11 07:07:07;;;;;;;3.33;2.50;;;;;;;26.71;78.34;101194.91;5031378;28;20527;-87
2023/09/11 07:09:45;;;;;;;2.93;2.60;;;;;;;27.27;75.81;101194.91;5032083;28;20021;-86
2023/09/11 07:12:11;;;;;;;2.60;2.40;;;;;;;27.06;74.97;101205.47;5031415;28;20045;-86
2023/09/11 07:14:36;;;;;;;3.27;2.40;;;;;;;26.35;71.37;101200.31;5031930;28;20057;-85
2023/09/11 07:17:04;;;;;;;4.03;2.73;;;;;;;25.54;73.99;101194.81;5035432;28;20033;-85
2023/09/11 07:19:30;;;;;;;3.88;3.03;;;;;;;24.90;76.21;101198.44;5034671;28;20034;-85
2023/09/11 07:21:55;;;;;;;3.53;2.90;;;;;;;24.33;77.56;101189.91;5034698;28;20112;-83
2023/09/11 07:24:20;;;;;;;4.60;2.80;;;;;;;23.94;79.03;101199.59;5034632;28;20084;-84
2023/09/11 07:26:46;;;;;;;2.97;2.67;;;;;;;23.63;79.03;101196.31;5034433;28;20464;-84
2023/09/11 07:29:11;;;;;;;3.10;2.60;;;;;;;23.37;80.45;101197.03;5035284;28;20021;-85
2023/09/11 07:31:36;;;;;;;4.03;3.00;;;;;;;23.13;80.82;101194.13;5035478;28;20121;-84
2023/09/11 07:34:02;;;;;;;3.87;3.13;;;;;;;22.95;81.11;101196.97;5034176;28;20029;-85
2023/09/11 07:36:28;;;;;;;4.53;2.90;;;;;;;22.81;82.48;101202.25;5035037;28;20026;-85
2023/09/11 07:38:54;;;;;;;3.40;2.97;;;;;;;22.75;83.03;101199.97;5035027;28;20021;-84
2023/09/11 07:41:20;;;;;;;2.70;2.50;;;;;;;22.71;83.21;101207.25;5051784;28;20052;-84
2023/09/11 07:43:49;;;;;;;;;;;;;;;22.65;83.23;101203.19;5054990;28;20389;-85
2023/09/11 07:46:16;;;;;;;7.10;3.88;;;;;;;22.57;84.04;101209.91;5054717;28;19913;-80
2023/09/11 07:48:41;;;;;;;6.38;3.95;;;;;;;;;;5054212;28;20519;-85
2023/09/11 07:51:06;;;;;;;4.77;3.47;;;;;;;22.51;84.26;101203.19;5054744;28;20108;-85
2023/09/11 07:53:32;;;;;;;4.20;3.20;;;;;;;22.56;83.82;101210.84;5054678;28;20152;-80
2023/09/11 07:55:57;;;;;;;7.90;4.50;;;;;;;22.58;83.63;101201.88;5053899;28;20029;-84
2023/09/11 07:58:23;;;;;;;5.73;3.90;;;;;;;22.60;83.90;101222.94;5054870;28;20025;-83
2023/09/11 08:00:48;;;;;;;4.75;3.63;;;;;;;22.63;83.98;101220.09;5054958;28;20103;-82
2023/09/11 08:03:14;;;;;;;4.37;3.57;;;;;;;22.59;84.32;101216.81;5053216;28;20028;-82
2023/09/11 08:05:39;;;;;;;4.57;3.43;;;;;;;22.68;83.82;101228.63;5054382;28;20052;-82
2023/09/11 08:08:04;;;;;;;6.83;4.27;;;;;;;22.72;84.62;101227.47;5054177;28;20100;-81
2023/09/11 08:10:30;;;;;;;6.33;4.17;;;;;;;22.78;84.48;101237.72;5053712;28;20025;-82
2023/09/11 08:12:58;;;;;;;4.07;3.50;;;;;;;22.80;83.96;101230.50;5052993;28;20024;-82
2023/09/11 08:15:24;;;;;;;3.42;3.10;;;;;;;22.86;84.83;101234.56;5053558;28;20060;-84
2023/09/11 08:17:52;;;;;;;3.45;3.15;;;;;;;22.93;84.82;101238.56;5054212;28;20489;-83
2023/09/11 08:20:17;;;;;;;3.90;3.10;;;;;;;23.01;84.42;101229.28;5053990;28;20029;-85
2023/09/11 08:22:43;;;;;;;4.70;3.60;;;;;;;23.03;84.22;101225.59;5053350;28;20039;-85
2023/09/11 08:25:09;;;;;;;4.87;3.37;;;;;;;23.13;83.03;101239.13;5054243;28;20047;-89
2023/09/11 08:27:35;;;;;;;5.53;3.85;;;;;;;23.09;83.42;101229.66;5053747;28;20450;-89
2023/09/11 08:30:16;;;;;;;4.60;3.50;;;;;;;23.22;84.13;101227.97;5053101;28;20025;-89
2023/09/11 08:32:41;;;;;;;4.57;3.25;;;;;;;23.33;84.40;101229.09;5054502;28;20105;-89
2023/09/11 08:35:07;;;;;;;3.47;3.00;;;;;;;23.40;84.87;101215.38;5053613;28;20059;-89
2023/09/11 08:37:32;;;;;;;5.27;3.60;;;;;;;23.60;84.08;101231.78;5054037;28;20101;-91
2023/09/11 08:40:46;;;;;;;3.50;2.80;;;;;;;23.73;84.09;101237.16;5055214;28;20041;-91
2023/09/11 08:43:13;;;;;;;3.97;3.17;;;;;;;23.80;82.83;101225.19;5048659;28;20207;-91
2023/09/11 08:46:03;;;;;;;3.00;2.58;;;;;;;23.90;83.41;101238.69;5049046;28;20036;-91
2023/09/11 08:48:31;;;;;;;2.65;2.45;;;;;;;23.97;82.64;101229.41;5053815;28;20079;-86
2023/09/11 08:51:22;;;;;;;2.50;2.28;;;;;;;24.10;82.87;101234.75;5051598;28;20037;-87
2023/09/11 08:53:56;;;;;;;2.15;2.00;;;;;;;24.20;82.30;101230.56;5054061;28;20029;-88
2023/09/11 08:56:22;;;;;;;2.08;1.95;;;;;;;24.34;82.28;101242.00;5053590;28;20021;-90
2023/09/11 08:59:10;;;;;;;2.03;1.92;;;;;;;24.40;81.33;101241.63;5053583;28;20155;-86
2023/09/11 09:01:36;;;;;;;2.90;2.65;;;;;;;24.49;80.07;101232.16;5054080;28;20142;-89
2023/09/11 09:04:18;;;;;;;3.38;2.50;;;;;;;24.64;80.85;101236.44;5053471;28;20025;-86
2023/09/11 09:06:46;;;;;;;2.95;2.35;;;;;;;24.70;81.51;101227.22;5052802;28;20021;-88
2023/09/11 09:09:28;;;;;;;2.20;2.10;;;;;;;24.88;80.52;101227.75;5052842;28;20078;-88
2023/09/11 09:11:54;;;;;;;4.88;3.08;;;;;;;25.01;79.04;101235.69;5050200;28;20124;-83
2023/09/11 09:14:19;;;;;;;2.42;2.22;;;;;;;25.09;80.40;101230.72;5052854;28;20104;-84
2023/09/11 09:16:46;;;;;;;2.88;2.40;;;;;;;25.21;79.80;101226.31;5053273;28;20128;-84
2023/09/11 09:19:18;;;;;;;2.40;2.20;;;;;;;25.37;79.77;101234.03;5051447;28;20119;-83
2023/09/11 09:22:02;;;;;;;2.10;2.00;;;;;;;25.50;79.49;101235.84;5052903;28;20512;-83
2023/09/11 09:24:30;;;;;;;3.45;2.60;;;;;;;25.57;79.05;101232.63;5052984;28;20167;-84
2023/09/11 09:26:57;;;;;;;2.95;2.65;;;;;;;25.70;78.80;101235.22;5052154;28;20078;-83
2023/09/11 09:29:22;;;;;;;2.00;1.90;;;;;;;25.83;78.71;101234.31;5052484;28;20068;-84
2023/09/11 09:31:48;;;;;;;2.10;2.00;;;;;;;25.92;73.37;101236.28;5053566;28;20044;-84
2023/09/11 09:34:13;;;;;;;3.88;2.70;;;;;;;25.98;76.10;101243.81;5051242;28;20029;-83
2023/09/11 09:36:49;;;;;;;2.87;2.60;;;;;;;26.10;75.92;101247.41;5051171;28;20516;-84
2023/09/11 09:39:18;;;;;;;8.77;4.50;;;;;;;26.18;75.44;101246.81;5051888;28;20024;-83
2023/09/11 09:42:07;;;;;;;4.90;3.40;;;;;;;26.29;76.25;101238.88;5052156;28;20152;-88
2023/09/11 09:44:43;;;;;;;3.35;3.05;;;;;;;26.43;75.62;101237.81;5053006;28;20037;-88
2023/09/11 09:47:19;;;;;;;6.85;4.30;;;;;;;26.47;73.17;101235.75;5052031;28;20028;-89
2023/09/11 09:49:54;;;;;;;5.90;3.85;;;;;;;26.59;74.52;101234.81;5053166;28;20017;-84
2023/09/11 09:52:26;;;;;;;5.32;3.47;;;;;;;26.74;74.09;101243.44;5052638;28;20021;-88
2023/09/11 09:54:57;;;;;;;8.48;4.85;;;;;;;26.80;67.22;101247.47;5051693;28;20033;-88
2023/09/11 09:57:24;;;;;;;6.22;4.32;;;;;;;26.84;73.09;101237.44;5052564;28;20021;-88
2023/09/11 09:59:53;;;;;;;5.72;4.10;;;;;;;26.96;73.16;101234.66;5052830;28;20029;-88
2023/09/11 10:02:29;;;;;;;5.47;4.07;;;;;;;27.05;72.06;101233.09;5051872;28;20024;-88
2023/09/11 10:05:06;;;;;;;4.20;3.70;;;;;;;27.10;69.98;101227.38;5052049;28;20025;-88
2023/09/11 10:07:42;;;;;;;3.45;3.15;;;;;;;27.19;72.40;101225.81;5052542;28;20041;-88
2023/09/11 10:10:24;;;;;;;5.30;3.70;;;;;;;27.32;71.32;101239.81;5051285;28;20554;-88
2023/09/11 10:13:10;;;;;;;3.30;3.00;;;;;;;27.43;72.05;101236.28;5045823;28;20029;-83
2023/09/11 10:15:37;;;;;;;;;;;;;;;27.56;72.78;101234.38;5036151;28;20064;-86
2023/09/11 10:18:04;;;;;;;2.97;2.70;;;;;;;27.68;72.10;101237.00;5045792;28;20301;-85
2023/09/11 10:20:30;;;;;;;2.60;2.40;;;;;;;27.75;72.17;101236.34;5032783;28;20094;-85
2023/09/11 10:23:10;;;;;;;2.50;2.30;;;;;;;27.85;69.81;101235.59;5031605;28;20052;-85
2023/09/11 10:25:46;;;;;;;2.97;2.38;;;;;;;27.92;70.12;101225.28;5032450;28;20025;-84
2023/09/11 10:28:35;;;;;;;2.50;2.10;;;;;;;28.04;70.25;101233.09;5032203;28;20041;-85
2023/09/11 10:31:19;;;;;;;2.58;2.38;;;;;;;28.10;72.15;101231.75;5050549;28;20130;-85
2023/09/11 10:33:47;;;;;;;3.28;2.47;;;;;;;28.21;70.02;101233.50;5052242;28;20033;-84
2023/09/11 10:36:14;;;;;;;2.42;2.22;;;;;;;28.23;68.83;101226.22;5049676;28;20029;-85
2023/09/11 10:38:57;;;;;;;2.78;2.58;;;;;;;28.28;69.86;101231.16;5049719;28;20052;-85
2023/09/11 10:41:23;;;;;;;3.97;3.03;;;;;;;28.32;69.52;101229.94;5031313;28;20955;-84
2023/09/11 10:43:50;;;;;;;3.42;2.95;;;;;;;28.35;69.74;101211.00;5048234;28;20413;-85
2023/09/11 10:46:21;;;;;;;3.15;2.85;;;;;;;28.54;70.03;101228.09;5041401;28;20029;-85
2023/09/11 10:48:53;;;;;;;3.88;2.80;;;;;;;28.63;69.79;101221.97;5042100;28;20029;-85
2023/09/11 10:51:18;;;;;;;2.97;2.67;;;;;;;28.72;69.40;101217.69;5044438;28;20053;-85
2023/09/11 10:53:47;;;;;;;;;;;;;;;28.83;69.10;101214.94;5044689;28;20485;-85
2023/09/11 10:56:12;;;;;;;2.70;2.45;;;;;;;28.91;68.86;101211.59;5044742;28;19913;-85
2023/09/11 10:58:38;;;;;;;;;;;;;;;28.97;66.70;101213.72;5045364;28;20025;-85
2023/09/11 11:01:04;;;;;;;;;;;;;;;28.99;68.18;101217.09;5055719;28;19923;-85
2023/09/11 11:03:31;;;;;;;3.42;2.53;;;;;;;29.06;67.41;101212.06;5055467;28;19912;-85
2023/09/11 11:06:00;;;;;;;2.78;2.58;;;;;;;29.13;66.59;101202.50;5054320;28;20040;-85
2023/09/11 11:08:30;;;;;;;2.50;2.30;;;;;;;29.20;66.23;101205.47;5050477;28;20495;-85
2023/09/11 11:10:57;;;;;;;2.25;2.15;;;;;;;29.25;65.76;101201.41;5054673;28;20075;-85
2023/09/11 11:13:23;;;;;;;2.75;2.40;;;;;;;29.31;66.11;101208.03;5053481;28;20059;-85
2023/09/11 11:16:15;;;;;;;5.35;3.17;;;;;;;29.30;64.18;101206.34;5035590;28;20017;-85
2023/09/11 11:18:41;;;;;;;3.60;2.78;;;;;;;29.34;62.99;101209.63;5045692;28;20017;-85
2023/09/11 11:21:09;;;;;;;2.70;2.50;;;;;;;29.37;63.14;101204.84;5043437;28;20026;-85
2023/09/11 11:23:55;;;;;;;3.30;2.67;;;;;;;29.41;65.72;101210.78;5040503;28;20070;-85
2023/09/11 11:26:25;;;;;;;2.60;2.40;;;;;;;29.49;65.67;101208.25;5041653;28;20117;-86
2023/09/11 11:28:50;;;;;;;2.42;2.22;;;;;;;29.57;64.42;101202.19;5041114;28;20048;-85
2023/09/11 11:31:21;;;;;;;2.40;2.20;;;;;;;29.66;64.52;101209.38;5036672;28;20029;-85
2023/09/11 11:33:49;;;;;;;2.50;2.30;;;;;;;29.69;62.20;101195.75;5046451;28;20052;-85